sensor_id;sensor_type;location;lat;lon;timestamp;temperature;humidity
64951;DHT22;51482;47.014;7.652;2023-04-15T00:00:23;7.30;99.90
64951;DHT22;51482;47.014;7.652;2023-04-15T00:02:50;7.10;99.90
64951;DHT22;51482;47.014;7.652;2023-04-15T00:05:15;7.40;99.90
64951;DHT22;51482;47.014;7.652;2023-04-15T00:07:41;7.60;99.90
64951;DHT22;51482;47.014;7.652;2023-04-15T00:10:07;7.80;99.90
64951;DHT22;51482;47.014;7.652;2023-04-15T00:12:33;7.70;99.90
64951;DHT22;51482;47.014;7.652;2023-04-15T00:14:59;6.80;99.90
64951;DHT22;51482;47.014;7.652;2023-04-15T00:17:24;7.40;99.90
64951;DHT22;51482;47.014;7.652;2023-04-15T00:19:50;7.40;99.90
64951;DHT22;51482;47.014;7.652;2023-04-15T00:22:15;7.90;99.90
64951;DHT22;51482;47.014;7.652;2023-04-15T00:24:42;7.50;99.90
64951;DHT22;51482;47.014;7.652;2023-04-15T00:27:08;8.10;99.90
64951;DHT22;51482;47.014;7.652;2023-04-15T00:29:33;7.80;99.90
64951;DHT22;51482;47.014;7.652;2023-04-15T00:31:59;7.80;99.90
64951;DHT22;51482;47.014;7.652;2023-04-15T00:34:26;7.70;99.90
64951;DHT22;51482;47.014;7.652;2023-04-15T00:36:52;7.80;99.90
64951;DHT22;51482;47.014;7.652;2023-04-15T00:39:18;7.80;99.90
64951;DHT22;51482;47.014;7.652;2023-04-15T00:41:44;7.90;99.90
64951;DHT22;51482;47.014;7.652;2023-04-15T00:44:10;7.90;99.90
64951;DHT22;51482;47.014;7.652;2023-04-15T00:46:36;8.00;99.90
64951;DHT22;51482;47.014;7.652;2023-04-15T00:49:06;7.90;99.90
64951;DHT22;51482;47.014;7.652;2023-04-15T00:51:33;7.30;99.90
64951;DHT22;51482;47.014;7.652;2023-04-15T00:54:04;7.40;99.90
64951;DHT22;51482;47.014;7.652;2023-04-15T00:56:36;6.80;99.90
64951;DHT22;51482;47.014;7.652;2023-04-15T00:59:03;7.90;99.90
64951;DHT22;51482;47.014;7.652;2023-04-15T01:01:30;7.80;99.90
64951;DHT22;51482;47.014;7.652;2023-04-15T01:03:56;7.20;99.90
64951;DHT22;51482;47.014;7.652;2023-04-15T01:06:22;7.10;99.90
64951;DHT22;51482;47.014;7.652;2023-04-15T01:08:48;7.70;99.90
64951;DHT22;51482;47.014;7.652;2023-04-15T01:11:14;7.90;99.90
64951;DHT22;51482;47.014;7.652;2023-04-15T01:13:40;7.90;99.90
64951;DHT22;51482;47.014;7.652;2023-04-15T01:16:07;7.80;99.90
64951;DHT22;51482;47.014;7.652;2023-04-15T01:18:33;7.30;99.90
64951;DHT22;51482;47.014;7.652;2023-04-15T01:21:00;7.80;99.90
64951;DHT22;51482;47.014;7.652;2023-04-15T01:23:27;7.60;99.90
64951;DHT22;51482;47.014;7.652;2023-04-15T01:25:53;7.60;99.90
64951;DHT22;51482;47.014;7.652;2023-04-15T01:28:19;7.70;99.90
64951;DHT22;51482;47.014;7.652;2023-04-15T01:30:44;7.60;99.90
64951;DHT22;51482;47.014;7.652;2023-04-15T01:33:10;6.90;99.90
64951;DHT22;51482;47.014;7.652;2023-04-15T01:35:36;7.70;99.90
64951;DHT22;51482;47.014;7.652;2023-04-15T01:38:07;7.20;99.90
64951;DHT22;51482;47.014;7.652;2023-04-15T01:40:33;7.20;99.90
64951;DHT22;51482;47.014;7.652;2023-04-15T01:43:00;7.00;99.90
64951;DHT22;51482;47.014;7.652;2023-04-15T01:45:26;6.80;99.90
64951;DHT22;51482;47.014;7.652;2023-04-15T01:47:52;7.50;99.90
64951;DHT22;51482;47.014;7.652;2023-04-15T01:50:18;7.50;99.90
64951;DHT22;51482;47.014;7.652;2023-04-15T01:52:45;7.50;99.90
64951;DHT22;51482;47.014;7.652;2023-04-15T01:55:11;7.60;99.90
64951;DHT22;51482;47.014;7.652;2023-04-15T01:57:37;7.40;99.90
64951;DHT22;51482;47.014;7.652;2023-04-15T02:00:03;7.00;99.90
64951;DHT22;51482;47.014;7.652;2023-04-15T02:02:29;7.00;99.90
64951;DHT22;51482;47.014;7.652;2023-04-15T02:04:55;7.60;99.90
64951;DHT22;51482;47.014;7.652;2023-04-15T02:07:20;7.00;99.90
64951;DHT22;51482;47.014;7.652;2023-04-15T02:09:46;7.40;99.90
64951;DHT22;51482;47.014;7.652;2023-04-15T02:12:12;7.50;99.90
64951;DHT22;51482;47.014;7.652;2023-04-15T02:14:37;6.50;99.90
64951;DHT22;51482;47.014;7.652;2023-04-15T02:17:03;7.50;99.90
64951;DHT22;51482;47.014;7.652;2023-04-15T02:19:33;7.10;99.90
64951;DHT22;51482;47.014;7.652;2023-04-15T02:21:59;7.00;99.90
64951;DHT22;51482;47.014;7.652;2023-04-15T02:24:26;7.50;99.90
64951;DHT22;51482;47.014;7.652;2023-04-15T02:26:52;7.40;99.90
64951;DHT22;51482;47.014;7.652;2023-04-15T02:29:17;7.50;99.90
64951;DHT22;51482;47.014;7.652;2023-04-15T02:31:43;7.60;99.90
64951;DHT22;51482;47.014;7.652;2023-04-15T02:34:09;6.90;99.90
64951;DHT22;51482;47.014;7.652;2023-04-15T02:36:35;7.20;99.90
64951;DHT22;51482;47.014;7.652;2023-04-15T02:39:00;6.80;99.90
64951;DHT22;51482;47.014;7.652;2023-04-15T02:41:26;7.20;99.90
64951;DHT22;51482;47.014;7.652;2023-04-15T02:43:53;7.60;99.90
64951;DHT22;51482;47.014;7.652;2023-04-15T02:46:18;7.20;99.90
64951;DHT22;51482;47.014;7.652;2023-04-15T02:48:44;7.50;99.90
64951;DHT22;51482;47.014;7.652;2023-04-15T02:51:17;7.50;99.90
64951;DHT22;51482;47.014;7.652;2023-04-15T02:53:47;7.60;99.90
64951;DHT22;51482;47.014;7.652;2023-04-15T02:56:14;7.50;99.90
64951;DHT22;51482;47.014;7.652;2023-04-15T02:58:40;7.50;99.90
64951;DHT22;51482;47.014;7.652;2023-04-15T03:01:06;7.00;99.90
64951;DHT22;51482;47.014;7.652;2023-04-15T03:03:33;7.40;99.90
64951;DHT22;51482;47.014;7.652;2023-04-15T03:05:59;7.40;99.90
64951;DHT22;51482;47.014;7.652;2023-04-15T03:08:25;7.60;99.90
64951;DHT22;51482;47.014;7.652;2023-04-15T03:10:51;7.60;99.90
64951;DHT22;51482;47.014;7.652;2023-04-15T03:13:17;7.50;99.90
64951;DHT22;51482;47.014;7.652;2023-04-15T03:15:45;7.50;99.90
64951;DHT22;51482;47.014;7.652;2023-04-15T03:18:10;7.40;99.90
64951;DHT22;51482;47.014;7.652;2023-04-15T03:20:36;6.80;99.90
64951;DHT22;51482;47.014;7.652;2023-04-15T03:23:01;6.60;99.90
64951;DHT22;51482;47.014;7.652;2023-04-15T03:25:27;7.40;99.90
64951;DHT22;51482;47.014;7.652;2023-04-15T03:27:53;7.50;99.90
64951;DHT22;51482;47.014;7.652;2023-04-15T03:30:18;7.30;99.90
64951;DHT22;51482;47.014;7.652;2023-04-15T03:32:44;6.80;99.90
64951;DHT22;51482;47.014;7.652;2023-04-15T03:35:09;6.80;99.90
64951;DHT22;51482;47.014;7.652;2023-04-15T03:37:35;7.50;99.90
64951;DHT22;51482;47.014;7.652;2023-04-15T03:40:00;7.50;99.90
64951;DHT22;51482;47.014;7.652;2023-04-15T03:42:26;6.90;99.90
64951;DHT22;51482;47.014;7.652;2023-04-15T03:44:52;7.40;99.90
64951;DHT22;51482;47.014;7.652;2023-04-15T03:47:17;7.50;99.90
64951;DHT22;51482;47.014;7.652;2023-04-15T03:49:43;7.30;99.90
64951;DHT22;51482;47.014;7.652;2023-04-15T03:52:08;7.40;99.90
64951;DHT22;51482;47.014;7.652;2023-04-15T03:54:34;7.40;99.90
64951;DHT22;51482;47.014;7.652;2023-04-15T03:56:59;7.50;99.90
64951;DHT22;51482;47.014;7.652;2023-04-15T03:59:25;7.50;99.90
64951;DHT22;51482;47.014;7.652;2023-04-15T04:01:51;7.20;99.90
64951;DHT22;51482;47.014;7.652;2023-04-15T04:04:16;7.40;99.90
64951;DHT22;51482;47.014;7.652;2023-04-15T04:06:42;7.50;99.90
64951;DHT22;51482;47.014;7.652;2023-04-15T04:09:08;6.80;99.90
64951;DHT22;51482;47.014;7.652;2023-04-15T04:11:33;7.40;99.90
64951;DHT22;51482;47.014;7.652;2023-04-15T04:13:59;7.30;99.90
64951;DHT22;51482;47.014;7.652;2023-04-15T04:16:25;7.50;99.90
64951;DHT22;51482;47.014;7.652;2023-04-15T04:18:50;7.40;99.90
64951;DHT22;51482;47.014;7.652;2023-04-15T04:21:16;7.40;99.90
64951;DHT22;51482;47.014;7.652;2023-04-15T04:23:42;7.40;99.90
64951;DHT22;51482;47.014;7.652;2023-04-15T04:26:07;7.60;99.90
64951;DHT22;51482;47.014;7.652;2023-04-15T04:28:33;7.30;99.90
64951;DHT22;51482;47.014;7.652;2023-04-15T04:30:59;7.20;99.90
64951;DHT22;51482;47.014;7.652;2023-04-15T04:33:25;6.70;99.90
64951;DHT22;51482;47.014;7.652;2023-04-15T04:35:51;7.40;99.90
64951;DHT22;51482;47.014;7.652;2023-04-15T04:38:16;6.90;99.90
64951;DHT22;51482;47.014;7.652;2023-04-15T04:40:42;7.40;99.90
64951;DHT22;51482;47.014;7.652;2023-04-15T04:43:08;6.60;99.90
64951;DHT22;51482;47.014;7.652;2023-04-15T04:45:33;7.50;99.90
64951;DHT22;51482;47.014;7.652;2023-04-15T04:47:59;7.00;99.90
64951;DHT22;51482;47.014;7.652;2023-04-15T04:50:25;6.20;99.90
64951;DHT22;51482;47.014;7.652;2023-04-15T04:52:50;7.30;99.90
64951;DHT22;51482;47.014;7.652;2023-04-15T04:55:16;7.60;99.90
64951;DHT22;51482;47.014;7.652;2023-04-15T04:57:41;7.30;99.90
64951;DHT22;51482;47.014;7.652;2023-04-15T05:00:07;7.50;99.90
64951;DHT22;51482;47.014;7.652;2023-04-15T05:02:33;6.90;99.90
64951;DHT22;51482;47.014;7.652;2023-04-15T05:04:59;6.90;99.90
64951;DHT22;51482;47.014;7.652;2023-04-15T05:07:25;7.50;99.90
64951;DHT22;51482;47.014;7.652;2023-04-15T05:16:34;7.30;99.90
64951;DHT22;51482;47.014;7.652;2023-04-15T05:18:59;6.90;99.90
64951;DHT22;51482;47.014;7.652;2023-04-15T05:31:21;6.80;99.90
64951;DHT22;51482;47.014;7.652;2023-04-15T05:34:18;7.30;99.90
64951;DHT22;51482;47.014;7.652;2023-04-15T05:43:28;6.70;99.90
64951;DHT22;51482;47.014;7.652;2023-04-15T06:05:49;7.30;99.90
64951;DHT22;51482;47.014;7.652;2023-04-15T06:08:15;7.00;99.90
64951;DHT22;51482;47.014;7.652;2023-04-15T06:14:02;6.90;99.90
64951;DHT22;51482;47.014;7.652;2023-04-15T06:16:28;7.50;99.90
64951;DHT22;51482;47.014;7.652;2023-04-15T06:25:31;6.70;99.90
64951;DHT22;51482;47.014;7.652;2023-04-15T06:27:59;7.40;99.90
64951;DHT22;51482;47.014;7.652;2023-04-15T06:33:47;6.90;99.90
64951;DHT22;51482;47.014;7.652;2023-04-15T06:36:13;7.50;99.90
64951;DHT22;51482;47.014;7.652;2023-04-15T06:45:19;7.50;99.90
64951;DHT22;51482;47.014;7.652;2023-04-15T06:47:45;8.20;99.90
64951;DHT22;51482;47.014;7.652;2023-04-15T06:53:32;7.70;99.90
64951;DHT22;51482;47.014;7.652;2023-04-15T06:56:00;7.60;99.90
64951;DHT22;51482;47.014;7.652;2023-04-15T07:01:47;7.50;99.90
64951;DHT22;51482;47.014;7.652;2023-04-15T07:04:13;7.50;99.90
64951;DHT22;51482;47.014;7.652;2023-04-15T07:13:06;7.70;99.90
64951;DHT22;51482;47.014;7.652;2023-04-15T07:29:53;7.80;99.90
64951;DHT22;51482;47.014;7.652;2023-04-15T07:32:18;8.20;99.90
64951;DHT22;51482;47.014;7.652;2023-04-15T07:34:44;8.40;99.90
64951;DHT22;51482;47.014;7.652;2023-04-15T07:37:13;7.90;99.90
64951;DHT22;51482;47.014;7.652;2023-04-15T07:39:39;8.50;99.90
64951;DHT22;51482;47.014;7.652;2023-04-15T07:42:05;8.40;99.90
64951;DHT22;51482;47.014;7.652;2023-04-15T07:44:30;7.90;99.90
64951;DHT22;51482;47.014;7.652;2023-04-15T07:46:56;8.50;99.90
64951;DHT22;51482;47.014;7.652;2023-04-15T07:49:21;8.40;99.90
64951;DHT22;51482;47.014;7.652;2023-04-15T07:51:48;8.40;99.90
64951;DHT22;51482;47.014;7.652;2023-04-15T07:54:14;8.60;99.90
64951;DHT22;51482;47.014;7.652;2023-04-15T07:56:40;8.00;99.90
64951;DHT22;51482;47.014;7.652;2023-04-15T07:59:06;8.10;99.90
64951;DHT22;51482;47.014;7.652;2023-04-15T08:01:31;8.60;99.90
64951;DHT22;51482;47.014;7.652;2023-04-15T08:03:58;8.70;99.90
64951;DHT22;51482;47.014;7.652;2023-04-15T08:06:23;8.10;99.90
64951;DHT22;51482;47.014;7.652;2023-04-15T08:08:49;8.70;99.90
64951;DHT22;51482;47.014;7.652;2023-04-15T08:11:15;8.70;99.90
64951;DHT22;51482;47.014;7.652;2023-04-15T08:13:41;8.50;99.90
64951;DHT22;51482;47.014;7.652;2023-04-15T08:16:21;8.90;99.90
64951;DHT22;51482;47.014;7.652;2023-04-15T08:18:48;8.40;99.90
64951;DHT22;51482;47.014;7.652;2023-04-15T08:21:14;9.00;99.90
64951;DHT22;51482;47.014;7.652;2023-04-15T08:23:40;8.60;99.90
64951;DHT22;51482;47.014;7.652;2023-04-15T08:26:07;8.90;99.90
64951;DHT22;51482;47.014;7.652;2023-04-15T08:28:33;8.70;99.90
64951;DHT22;51482;47.014;7.652;2023-04-15T08:30:58;9.40;99.90
64951;DHT22;51482;47.014;7.652;2023-04-15T08:33:24;9.60;99.90
64951;DHT22;51482;47.014;7.652;2023-04-15T08:35:50;9.00;99.90
64951;DHT22;51482;47.014;7.652;2023-04-15T08:38:16;9.00;99.90
64951;DHT22;51482;47.014;7.652;2023-04-15T08:40:43;9.10;99.90
64951;DHT22;51482;47.014;7.652;2023-04-15T08:43:12;9.10;99.90
64951;DHT22;51482;47.014;7.652;2023-04-15T08:45:40;9.70;99.90
64951;DHT22;51482;47.014;7.652;2023-04-15T08:48:07;9.10;99.90
64951;DHT22;51482;47.014;7.652;2023-04-15T08:50:34;9.10;99.90
64951;DHT22;51482;47.014;7.652;2023-04-15T08:52:59;9.70;99.90
64951;DHT22;51482;47.014;7.652;2023-04-15T08:55:28;9.30;99.90
64951;DHT22;51482;47.014;7.652;2023-04-15T08:57:55;9.70;99.90
64951;DHT22;51482;47.014;7.652;2023-04-15T09:00:21;9.10;99.90
64951;DHT22;51482;47.014;7.652;2023-04-15T09:02:47;9.50;99.90
64951;DHT22;51482;47.014;7.652;2023-04-15T09:05:13;9.10;99.90
64951;DHT22;51482;47.014;7.652;2023-04-15T09:07:38;9.00;99.90
64951;DHT22;51482;47.014;7.652;2023-04-15T09:10:04;9.60;99.90
64951;DHT22;51482;47.014;7.652;2023-04-15T09:12:36;9.10;99.90
64951;DHT22;51482;47.014;7.652;2023-04-15T09:15:03;8.90;99.90
64951;DHT22;51482;47.014;7.652;2023-04-15T09:17:32;9.10;99.90
64951;DHT22;51482;47.014;7.652;2023-04-15T09:20:14;8.50;99.90
64951;DHT22;51482;47.014;7.652;2023-04-15T09:22:41;9.00;99.90
64951;DHT22;51482;47.014;7.652;2023-04-15T09:25:25;9.70;99.90
64951;DHT22;51482;47.014;7.652;2023-04-15T09:27:56;9.10;99.90
64951;DHT22;51482;47.014;7.652;2023-04-15T09:30:22;9.10;99.90
64951;DHT22;51482;47.014;7.652;2023-04-15T09:35:22;9.00;99.90
64951;DHT22;51482;47.014;7.652;2023-04-15T09:37:49;9.30;99.90
64951;DHT22;51482;47.014;7.652;2023-04-15T09:40:50;9.10;99.90
64951;DHT22;51482;47.014;7.652;2023-04-15T09:43:15;8.80;99.90
64951;DHT22;51482;47.014;7.652;2023-04-15T09:45:49;8.70;99.90
64951;DHT22;51482;47.014;7.652;2023-04-15T09:48:19;8.90;99.90
64951;DHT22;51482;47.014;7.652;2023-04-15T09:50:47;8.70;99.90
64951;DHT22;51482;47.014;7.652;2023-04-15T09:53:18;8.50;99.90
64951;DHT22;51482;47.014;7.652;2023-04-15T09:55:51;9.20;99.90
64951;DHT22;51482;47.014;7.652;2023-04-15T09:58:23;8.40;99.90
64951;DHT22;51482;47.014;7.652;2023-04-15T10:00:51;9.20;99.90
64951;DHT22;51482;47.014;7.652;2023-04-15T10:03:22;8.70;99.90
64951;DHT22;51482;47.014;7.652;2023-04-15T10:05:50;9.30;99.90
64951;DHT22;51482;47.014;7.652;2023-04-15T10:08:27;8.30;99.90
64951;DHT22;51482;47.014;7.652;2023-04-15T10:10:53;8.80;99.90
64951;DHT22;51482;47.014;7.652;2023-04-15T10:13:23;9.40;99.90
64951;DHT22;51482;47.014;7.652;2023-04-15T10:16:03;9.50;99.90
64951;DHT22;51482;47.014;7.652;2023-04-15T10:18:33;9.00;99.90
64951;DHT22;51482;47.014;7.652;2023-04-15T10:21:00;8.60;99.90
64951;DHT22;51482;47.014;7.652;2023-04-15T10:23:25;8.90;99.90
64951;DHT22;51482;47.014;7.652;2023-04-15T10:25:53;9.20;99.90
64951;DHT22;51482;47.014;7.652;2023-04-15T10:28:20;9.60;99.90
64951;DHT22;51482;47.014;7.652;2023-04-15T10:30:47;9.70;99.90
64951;DHT22;51482;47.014;7.652;2023-04-15T10:33:16;8.80;99.90
64951;DHT22;51482;47.014;7.652;2023-04-15T10:35:43;9.20;99.90
64951;DHT22;51482;47.014;7.652;2023-04-15T10:38:31;8.80;99.90
64951;DHT22;51482;47.014;7.652;2023-04-15T10:41:19;9.30;99.90
64951;DHT22;51482;47.014;7.652;2023-04-15T10:43:52;8.60;99.90
64951;DHT22;51482;47.014;7.652;2023-04-15T10:46:21;8.60;99.90
64951;DHT22;51482;47.014;7.652;2023-04-15T10:48:52;8.70;99.90
64951;DHT22;51482;47.014;7.652;2023-04-15T10:51:30;8.90;99.90
64951;DHT22;51482;47.014;7.652;2023-04-15T10:53:59;8.70;99.90
64951;DHT22;51482;47.014;7.652;2023-04-15T10:56:27;8.70;99.90
64951;DHT22;51482;47.014;7.652;2023-04-15T10:58:53;8.00;99.90
64951;DHT22;51482;47.014;7.652;2023-04-15T11:01:19;8.70;99.90
64951;DHT22;51482;47.014;7.652;2023-04-15T11:03:47;8.90;99.90
64951;DHT22;51482;47.014;7.652;2023-04-15T11:06:13;8.90;99.90
64951;DHT22;51482;47.014;7.652;2023-04-15T11:08:58;8.90;99.90
64951;DHT22;51482;47.014;7.652;2023-04-15T11:12:04;9.40;99.90
64951;DHT22;51482;47.014;7.652;2023-04-15T11:14:32;9.00;99.90
64951;DHT22;51482;47.014;7.652;2023-04-15T11:17:00;9.10;99.90
64951;DHT22;51482;47.014;7.652;2023-04-15T11:19:26;9.80;99.90
64951;DHT22;51482;47.014;7.652;2023-04-15T11:22:06;9.20;99.90
64951;DHT22;51482;47.014;7.652;2023-04-15T11:24:32;9.10;99.90
64951;DHT22;51482;47.014;7.652;2023-04-15T11:26:57;9.10;99.90
64951;DHT22;51482;47.014;7.652;2023-04-15T11:29:28;9.80;99.90
64951;DHT22;51482;47.014;7.652;2023-04-15T11:32:04;9.80;99.90
64951;DHT22;51482;47.014;7.652;2023-04-15T11:34:31;9.50;99.90
64951;DHT22;51482;47.014;7.652;2023-04-15T11:36:57;9.40;99.90
64951;DHT22;51482;47.014;7.652;2023-04-15T11:39:22;9.80;99.90
64951;DHT22;51482;47.014;7.652;2023-04-15T11:41:48;10.30;99.90
64951;DHT22;51482;47.014;7.652;2023-04-15T11:44:17;9.90;99.90
64951;DHT22;51482;47.014;7.652;2023-04-15T11:46:43;9.80;99.90
64951;DHT22;51482;47.014;7.652;2023-04-15T11:49:08;9.90;99.90
64951;DHT22;51482;47.014;7.652;2023-04-15T11:51:34;9.70;99.90
64951;DHT22;51482;47.014;7.652;2023-04-15T11:54:00;9.90;99.90
64951;DHT22;51482;47.014;7.652;2023-04-15T11:56:25;10.30;99.90
64951;DHT22;51482;47.014;7.652;2023-04-15T11:58:56;9.90;99.90
64951;DHT22;51482;47.014;7.652;2023-04-15T12:01:35;10.30;99.90
64951;DHT22;51482;47.014;7.652;2023-04-15T12:04:10;9.80;99.90
64951;DHT22;51482;47.014;7.652;2023-04-15T12:06:36;9.10;99.90
64951;DHT22;51482;47.014;7.652;2023-04-15T12:11:36;9.60;99.90
64951;DHT22;51482;47.014;7.652;2023-04-15T12:14:09;10.10;99.90
64951;DHT22;51482;47.014;7.652;2023-04-15T12:16:40;9.40;99.90
64951;DHT22;51482;47.014;7.652;2023-04-15T12:19:10;9.30;99.90
64951;DHT22;51482;47.014;7.652;2023-04-15T12:21:38;9.40;99.90
64951;DHT22;51482;47.014;7.652;2023-04-15T12:24:09;9.50;99.90
64951;DHT22;51482;47.014;7.652;2023-04-15T12:29:09;8.90;99.90
64951;DHT22;51482;47.014;7.652;2023-04-15T12:31:35;9.30;99.90
64951;DHT22;51482;47.014;7.652;2023-04-15T12:34:06;8.90;99.90
64951;DHT22;51482;47.014;7.652;2023-04-15T12:36:33;9.60;99.90
64951;DHT22;51482;47.014;7.652;2023-04-15T12:39:02;9.00;99.90
64951;DHT22;51482;47.014;7.652;2023-04-15T12:41:28;9.80;99.90
64951;DHT22;51482;47.014;7.652;2023-04-15T12:43:54;9.30;99.90
64951;DHT22;51482;47.014;7.652;2023-04-15T12:46:20;9.30;99.90
64951;DHT22;51482;47.014;7.652;2023-04-15T12:48:46;8.90;99.90
64951;DHT22;51482;47.014;7.652;2023-04-15T12:51:12;9.00;99.90
64951;DHT22;51482;47.014;7.652;2023-04-15T12:53:38;9.30;99.90
64951;DHT22;51482;47.014;7.652;2023-04-15T12:56:03;9.10;99.90
64951;DHT22;51482;47.014;7.652;2023-04-15T12:58:29;9.30;99.90
64951;DHT22;51482;47.014;7.652;2023-04-15T13:00:54;9.70;99.90
64951;DHT22;51482;47.014;7.652;2023-04-15T13:03:21;9.90;99.90
64951;DHT22;51482;47.014;7.652;2023-04-15T13:05:47;9.50;99.90
64951;DHT22;51482;47.014;7.652;2023-04-15T13:08:12;9.50;99.90
64951;DHT22;51482;47.014;7.652;2023-04-15T13:10:38;10.10;99.90
64951;DHT22;51482;47.014;7.652;2023-04-15T13:13:04;9.30;99.90
64951;DHT22;51482;47.014;7.652;2023-04-15T13:15:30;9.50;99.90
64951;DHT22;51482;47.014;7.652;2023-04-15T13:17:55;9.60;99.90
64951;DHT22;51482;47.014;7.652;2023-04-15T13:20:21;9.70;99.90
64951;DHT22;51482;47.014;7.652;2023-04-15T13:22:47;9.80;99.90
64951;DHT22;51482;47.014;7.652;2023-04-15T13:25:12;9.10;99.90
64951;DHT22;51482;47.014;7.652;2023-04-15T13:27:38;10.20;99.90
64951;DHT22;51482;47.014;7.652;2023-04-15T13:30:04;9.50;99.90
64951;DHT22;51482;47.014;7.652;2023-04-15T13:32:30;9.30;99.90
64951;DHT22;51482;47.014;7.652;2023-04-15T13:34:56;9.70;99.90
64951;DHT22;51482;47.014;7.652;2023-04-15T13:37:30;8.50;99.90
64951;DHT22;51482;47.014;7.652;2023-04-15T13:39:56;9.60;99.90
64951;DHT22;51482;47.014;7.652;2023-04-15T13:42:22;9.50;99.90
64951;DHT22;51482;47.014;7.652;2023-04-15T13:44:51;9.60;99.90
64951;DHT22;51482;47.014;7.652;2023-04-15T13:47:18;9.40;99.90
64951;DHT22;51482;47.014;7.652;2023-04-15T13:49:44;8.80;99.90
64951;DHT22;51482;47.014;7.652;2023-04-15T13:52:10;9.20;99.90
64951;DHT22;51482;47.014;7.652;2023-04-15T13:54:36;9.40;99.90
64951;DHT22;51482;47.014;7.652;2023-04-15T13:57:01;9.10;99.90
64951;DHT22;51482;47.014;7.652;2023-04-15T13:59:27;9.10;99.90
64951;DHT22;51482;47.014;7.652;2023-04-15T14:01:52;9.20;99.90
64951;DHT22;51482;47.014;7.652;2023-04-15T14:04:18;8.60;99.90
64951;DHT22;51482;47.014;7.652;2023-04-15T14:06:43;9.30;99.90
64951;DHT22;51482;47.014;7.652;2023-04-15T14:09:09;8.60;99.90
64951;DHT22;51482;47.014;7.652;2023-04-15T14:11:37;9.10;99.90
64951;DHT22;51482;47.014;7.652;2023-04-15T14:14:03;9.10;99.90
64951;DHT22;51482;47.014;7.652;2023-04-15T14:16:31;9.20;99.90
64951;DHT22;51482;47.014;7.652;2023-04-15T14:18:57;9.10;99.90
64951;DHT22;51482;47.014;7.652;2023-04-15T14:21:23;8.70;99.90
64951;DHT22;51482;47.014;7.652;2023-04-15T14:23:48;9.00;99.90
64951;DHT22;51482;47.014;7.652;2023-04-15T14:26:14;9.40;99.90
64951;DHT22;51482;47.014;7.652;2023-04-15T14:28:39;9.60;99.90
64951;DHT22;51482;47.014;7.652;2023-04-15T14:31:05;9.10;99.90
64951;DHT22;51482;47.014;7.652;2023-04-15T14:33:31;9.50;99.90
64951;DHT22;51482;47.014;7.652;2023-04-15T14:35:56;9.70;99.90
64951;DHT22;51482;47.014;7.652;2023-04-15T14:38:22;9.60;99.90
64951;DHT22;51482;47.014;7.652;2023-04-15T14:40:47;9.20;99.90
64951;DHT22;51482;47.014;7.652;2023-04-15T14:43:13;9.40;99.90
64951;DHT22;51482;47.014;7.652;2023-04-15T14:45:39;9.30;99.90
64951;DHT22;51482;47.014;7.652;2023-04-15T14:48:04;9.20;99.90
64951;DHT22;51482;47.014;7.652;2023-04-15T14:50:34;9.30;99.90
64951;DHT22;51482;47.014;7.652;2023-04-15T14:53:00;9.90;99.90
64951;DHT22;51482;47.014;7.652;2023-04-15T14:55:26;9.30;99.90
64951;DHT22;51482;47.014;7.652;2023-04-15T14:57:51;9.80;99.90
64951;DHT22;51482;47.014;7.652;2023-04-15T15:00:17;9.90;99.90
64951;DHT22;51482;47.014;7.652;2023-04-15T15:02:43;9.20;99.90
64951;DHT22;51482;47.014;7.652;2023-04-15T15:05:09;9.70;99.90
64951;DHT22;51482;47.014;7.652;2023-04-15T15:07:36;8.50;99.90
64951;DHT22;51482;47.014;7.652;2023-04-15T15:10:02;9.00;99.90
64951;DHT22;51482;47.014;7.652;2023-04-15T15:12:28;9.00;99.90
64951;DHT22;51482;47.014;7.652;2023-04-15T15:14:54;8.60;99.90
64951;DHT22;51482;47.014;7.652;2023-04-15T15:17:20;9.40;99.90
64951;DHT22;51482;47.014;7.652;2023-04-15T15:19:46;9.20;99.90
64951;DHT22;51482;47.014;7.652;2023-04-15T15:22:11;8.90;99.90
64951;DHT22;51482;47.014;7.652;2023-04-15T15:24:37;9.10;99.90
64951;DHT22;51482;47.014;7.652;2023-04-15T15:27:02;8.30;99.90
64951;DHT22;51482;47.014;7.652;2023-04-15T15:29:28;8.80;99.90
64951;DHT22;51482;47.014;7.652;2023-04-15T15:31:53;8.80;99.90
64951;DHT22;51482;47.014;7.652;2023-04-15T15:34:19;8.80;99.90
64951;DHT22;51482;47.014;7.652;2023-04-15T15:36:44;8.20;99.90
64951;DHT22;51482;47.014;7.652;2023-04-15T15:39:10;9.30;99.90
64951;DHT22;51482;47.014;7.652;2023-04-15T15:41:35;9.00;99.90
64951;DHT22;51482;47.014;7.652;2023-04-15T15:44:01;9.80;99.90
64951;DHT22;51482;47.014;7.652;2023-04-15T15:46:27;9.50;99.90
64951;DHT22;51482;47.014;7.652;2023-04-15T15:48:53;8.90;99.90
64951;DHT22;51482;47.014;7.652;2023-04-15T15:51:19;8.90;99.90
64951;DHT22;51482;47.014;7.652;2023-04-15T15:53:45;9.20;99.90
64951;DHT22;51482;47.014;7.652;2023-04-15T15:56:10;9.50;99.90
64951;DHT22;51482;47.014;7.652;2023-04-15T15:58:36;9.40;99.90
64951;DHT22;51482;47.014;7.652;2023-04-15T16:01:02;8.90;99.90
64951;DHT22;51482;47.014;7.652;2023-04-15T16:03:27;9.60;99.90
64951;DHT22;51482;47.014;7.652;2023-04-15T16:05:53;9.70;99.90
64951;DHT22;51482;47.014;7.652;2023-04-15T16:08:18;9.50;99.90
64951;DHT22;51482;47.014;7.652;2023-04-15T16:10:45;9.60;99.90
64951;DHT22;51482;47.014;7.652;2023-04-15T16:13:10;9.60;99.90
64951;DHT22;51482;47.014;7.652;2023-04-15T16:15:37;8.90;99.90
64951;DHT22;51482;47.014;7.652;2023-04-15T16:18:02;9.70;99.90
64951;DHT22;51482;47.014;7.652;2023-04-15T16:20:28;9.30;99.90
64951;DHT22;51482;47.014;7.652;2023-04-15T16:22:56;9.80;99.90
64951;DHT22;51482;47.014;7.652;2023-04-15T16:25:21;9.80;99.90
64951;DHT22;51482;47.014;7.652;2023-04-15T16:27:47;9.40;99.90
64951;DHT22;51482;47.014;7.652;2023-04-15T16:30:13;9.90;99.90
64951;DHT22;51482;47.014;7.652;2023-04-15T16:32:39;9.60;99.90
64951;DHT22;51482;47.014;7.652;2023-04-15T16:35:05;9.60;99.90
64951;DHT22;51482;47.014;7.652;2023-04-15T16:37:31;9.70;99.90
64951;DHT22;51482;47.014;7.652;2023-04-15T16:39:57;9.20;99.90
64951;DHT22;51482;47.014;7.652;2023-04-15T16:42:24;10.30;99.90
64951;DHT22;51482;47.014;7.652;2023-04-15T16:44:50;10.00;99.90
64951;DHT22;51482;47.014;7.652;2023-04-15T16:47:15;10.60;99.90
64951;DHT22;51482;47.014;7.652;2023-04-15T16:49:41;10.50;99.90
64951;DHT22;51482;47.014;7.652;2023-04-15T16:52:06;10.60;99.90
64951;DHT22;51482;47.014;7.652;2023-04-15T16:54:32;10.30;99.90
64951;DHT22;51482;47.014;7.652;2023-04-15T16:56:59;10.30;99.90
64951;DHT22;51482;47.014;7.652;2023-04-15T16:59:26;10.30;99.90
64951;DHT22;51482;47.014;7.652;2023-04-15T17:01:53;10.30;99.90
64951;DHT22;51482;47.014;7.652;2023-04-15T17:04:18;10.40;99.90
64951;DHT22;51482;47.014;7.652;2023-04-15T17:06:44;10.40;99.90
64951;DHT22;51482;47.014;7.652;2023-04-15T17:09:10;10.30;99.90
64951;DHT22;51482;47.014;7.652;2023-04-15T17:11:36;10.60;99.90
64951;DHT22;51482;47.014;7.652;2023-04-15T17:14:05;10.30;99.90
64951;DHT22;51482;47.014;7.652;2023-04-15T17:16:31;10.10;99.90
64951;DHT22;51482;47.014;7.652;2023-04-15T17:18:56;10.20;99.90
64951;DHT22;51482;47.014;7.652;2023-04-15T17:21:22;10.40;99.90